Henderson, NV (89009)

8:08 PM PDT en Octubre 31, 2014 (GMT -0700)
River Mountain Ridge | Change Station
CLOSE
Current Station
Estación meteorológica personal
Location: Henderson, NV
Altura: 1942 ft
Estaciones meteorológicas cercanas

Alt 1942 ft 36.04 °N, 114.95 °W | Updated 5 minutes ago

Parcialmente nublado
Parcialmente nublado
77.7 ° F
Sensación térmica 78 ° F
N
2.0
Viento Variable Viento desde SSO
Gusts 5.0 mph

Hoy
Alta -- | Baja -- ° F
--% Posibilidad de precipitaciones
Ayer
Alta -- | Baja -- ° F
Precip. -- pul
7:01 AM 5:44 PM
Cuarto creciente, 61% visible
Presión 29.75 pul
Visibilidad 10.0 Millas
Nubes Despejado
Índice de calor 78 ° F
Punto de rocío 38 ° F
Humedad 24%
Precipitaciones 0.00 pul
Espesor de la nieve No disponible.
UV 0 de una escala de 12
Polen 4.60 de una escala de 12
Calidad del aire No disponible.
Flu Activity No disponible.
METAR KBVU 010255Z AUTO 20007KT 10SM CLR 24/M01 A2975 RMK AO2

More Conditions Fewer Conditions

Presión 29.75 pul
Visibilidad 10.0 Millas
Nubes Despejado
Índice de calor 78 ° F
Punto de rocío 38 ° F
Humedad 24%
Precipitaciones 0.00 pul
Espesor de la nieve No disponible.
UV 0 de una escala de 12
Polen 4.60 de una escala de 12
Calidad del aire No disponible.
Flu Activity No disponible.
METAR KBVU 010255Z AUTO 20007KT 10SM CLR 24/M01 A2975 RMK AO2

More Conditions Fewer Conditions

10-Day Weather Forecast

Almanac

Astronomía

Oct. 31, 2014 Salida Puesta
Hora real
Crepúsculo civil
Crepúsculo náutico
Crepúsculo astronómico
Luna
Horas de luz
Horas de luz
Tomorrow will be .
, % of the Moon is Illuminated

Extremos de hoy

Máximos del estado Bajos del estado

Community

WunderPhotos

Upload Photos

1,766,829 ¡fotos cargadas!

WunderBlogs® & News

Nearby

Calidad del aire

  Calidad del aire Índice AQ Contaminante
Not available.

Grosos de nieve

Estación Profundido Altura

Actividad de terremotos

Ciudad Distance Mag. Tiempo y dato
Magnitud mínima muestra es 2,5.

Temperaturas de aguas costeras

Lugar Temperatura

Estaciones meteorológicas cercanas